Time;durP1;ratioP1;P1;durP2;ratioP2;P2;SDS_P1;SDS_P2;PMS_P1;PMS_P2;Temp;Humidity;BMP_temperature;BMP_pressure;BME280_temperature;BME280_humidity;BME280_pressure;Samples;Min_cycle;Max_cycle;Signal;HPM_P1;HPM_P2
2022/08/08 00:02:28;;;;;;;0.20;0.20;;;;;;;23.02;33.86;101030.16;5053878;28;20033;-67
2022/08/08 00:05:17;;;;;;;0.30;0.30;;;;;;;23.01;33.72;101030.44;5038625;28;20028;-67
2022/08/08 00:07:56;;;;;;;0.30;0.30;;;;;;;23.01;33.69;101036.69;5055363;28;20074;-67
2022/08/08 00:10:32;;;;;;;0.20;0.20;;;;;;;23.00;33.58;101026.88;5054682;28;20040;-67
2022/08/08 00:13:00;;;;;;;0.20;0.20;;;;;;;23.00;33.76;101032.31;5054042;28;20025;-67
2022/08/08 00:15:38;;;;;;;0.20;0.20;;;;;;;23.00;33.56;101032.31;5054864;28;20475;-67
2022/08/08 00:18:34;;;;;;;0.20;0.20;;;;;;;23.03;33.66;101037.25;5037403;28;20060;-67
2022/08/08 00:21:00;;;;;;;0.20;0.20;;;;;;;23.01;33.35;101044.06;5055086;28;20123;-67
2022/08/08 00:23:28;;;;;;;0.20;0.20;;;;;;;23.00;33.21;101036.94;5054767;28;20100;-67
2022/08/08 00:25:56;;;;;;;0.30;0.30;;;;;;;22.98;33.16;101039.94;5055022;28;20116;-67
2022/08/08 00:28:29;;;;;;;0.20;0.20;;;;;;;22.98;33.14;101037.19;5036961;28;20017;-67
2022/08/08 00:30:55;;;;;;;0.20;0.20;;;;;;;22.98;33.22;101037.19;5037494;28;20029;-67
2022/08/08 00:33:23;;;;;;;0.20;0.20;;;;;;;22.98;33.32;101042.66;5055064;28;20052;-67
2022/08/08 00:35:58;;;;;;;0.20;0.20;;;;;;;22.99;32.83;101044.31;5054491;28;20589;-67
2022/08/08 00:38:45;;;;;;;0.20;0.20;;;;;;;22.98;32.92;101044.56;5054462;28;20060;-67
2022/08/08 00:41:22;;;;;;;0.20;0.20;;;;;;;22.98;32.96;101050.84;5054703;28;20025;-67
2022/08/08 00:44:09;;;;;;;0.20;0.20;;;;;;;23.01;32.65;101044.88;5054447;28;20033;-67
2022/08/08 00:47:12;;;;;;;0.20;0.20;;;;;;;23.00;32.77;101040.50;5054831;28;20146;-67
2022/08/08 00:50:11;;;;;;;0.20;0.20;;;;;;;22.99;32.70;101047.03;5053393;28;20033;-67
2022/08/08 00:52:41;;;;;;;0.20;0.20;;;;;;;22.99;32.62;101046.19;5054157;28;20037;-67
2022/08/08 00:55:34;;;;;;;0.20;0.20;;;;;;;23.00;32.53;101048.66;5052962;28;20028;-67
2022/08/08 00:58:24;;;;;;;0.95;0.30;;;;;;;23.01;32.58;101044.06;5053333;28;20017;-67
2022/08/08 01:01:13;;;;;;;0.20;0.20;;;;;;;22.96;32.34;101042.09;5068504;28;20024;-68
2022/08/08 01:04:23;;;;;;;0.20;0.20;;;;;;;23.02;32.42;101041.06;5073989;28;20158;-68
2022/08/08 01:06:58;;;;;;;0.20;0.20;;;;;;;22.98;32.49;101050.84;5031853;28;20063;-68
2022/08/08 01:09:42;;;;;;;0.20;0.20;;;;;;;22.98;32.46;101050.84;5016170;28;20060;-68
2022/08/08 01:12:40;;;;;;;0.20;0.20;;;;;;;22.98;32.24;101050.84;5060690;28;20040;-68
2022/08/08 01:15:44;;;;;;;0.20;0.20;;;;;;;23.00;32.13;101051.41;5072776;28;20131;-68
2022/08/08 01:18:24;;;;;;;0.43;0.20;;;;;;;22.98;32.40;101050.84;5072469;28;20394;-68
2022/08/08 01:21:13;;;;;;;0.30;0.30;;;;;;;22.95;32.24;101045.88;5072797;28;20021;-68
2022/08/08 01:24:07;;;;;;;0.20;0.20;;;;;;;22.99;32.17;101047.03;5057471;28;20025;-68
2022/08/08 01:26:51;;;;;;;;;;;;;;;23.14;31.65;101049.13;5074275;28;20021;-68
2022/08/08 01:29:25;;;;;;;0.20;0.20;;;;;;;23.03;31.74;101048.16;5073775;28;20370;-68
2022/08/08 01:32:09;;;;;;;;;;;;;;;23.16;31.39;101051.59;5073763;28;20144;-68
2022/08/08 01:34:59;;;;;;;0.30;0.30;;;;;;;23.05;31.74;101056.94;5073752;28;20065;-68
2022/08/08 01:37:53;;;;;;;0.30;0.30;;;;;;;23.02;31.75;101065.59;5073763;28;20069;-68
2022/08/08 01:40:43;;;;;;;0.30;0.30;;;;;;;23.02;31.82;101065.59;5072635;28;20053;-68
2022/08/08 01:43:32;;;;;;;0.17;0.17;;;;;;;22.99;31.97;101074.31;5073500;28;20107;-68
2022/08/08 01:46:01;;;;;;;0.20;0.20;;;;;;;22.97;31.74;101064.72;5073716;28;20052;-68
2022/08/08 01:48:52;;;;;;;0.20;0.20;;;;;;;22.95;31.68;101075.88;5073821;28;20051;-68
2022/08/08 01:51:33;;;;;;;0.20;0.20;;;;;;;22.95;31.54;101081.31;5072314;28;20495;-68
2022/08/08 01:54:17;;;;;;;0.20;0.20;;;;;;;22.94;31.73;101081.56;5073329;28;20082;-68
2022/08/08 01:56:59;;;;;;;0.22;0.22;;;;;;;22.94;31.64;101082.41;5073384;28;20028;-68
2022/08/08 01:59:47;;;;;;;0.20;0.20;;;;;;;22.95;31.56;101084.03;5055478;28;20459;-68
2022/08/08 02:02:21;;;;;;;0.20;0.20;;;;;;;22.93;31.66;101088.94;5051945;28;20609;-67
2022/08/08 02:05:08;;;;;;;0.20;0.20;;;;;;;22.95;31.76;101080.50;5036387;28;20025;-67
2022/08/08 02:07:52;;;;;;;0.20;0.20;;;;;;;22.95;31.68;101077.78;5052163;28;20120;-67
2022/08/08 02:10:55;;;;;;;0.20;0.20;;;;;;;22.98;31.55;101080.81;5051962;28;20486;-67
2022/08/08 02:13:33;;;;;;;0.30;0.30;;;;;;;22.96;31.26;101088.44;5053211;28;20071;-67
2022/08/08 02:16:25;;;;;;;0.30;0.30;;;;;;;22.98;31.76;101083.53;5051993;28;20098;-67
2022/08/08 02:19:10;;;;;;;0.25;0.25;;;;;;;22.92;31.52;101090.03;5050614;28;20112;-67
2022/08/08 02:24:41;;;;;;;0.20;0.20;;;;;;;22.92;31.23;101090.03;5038379;28;20044;-67
2022/08/08 02:27:12;;;;;;;1.48;0.30;;;;;;;22.91;31.36;101082.91;5035586;28;20163;-67
2022/08/08 02:29:40;;;;;;;0.30;0.30;;;;;;;22.92;31.56;101095.47;5052051;28;20025;-67
2022/08/08 02:32:08;;;;;;;0.20;0.20;;;;;;;22.91;31.42;101087.56;5052466;28;20152;-69
2022/08/08 02:34:38;;;;;;;0.30;0.30;;;;;;;22.91;31.16;101093.81;5053120;28;20025;-68
2022/08/08 02:37:24;;;;;;;0.20;0.20;;;;;;;22.91;31.24;101093.81;5056807;28;20032;-68
2022/08/08 02:40:05;;;;;;;0.25;0.25;;;;;;;22.92;31.26;101094.63;5055588;28;20028;-68
2022/08/08 02:42:44;;;;;;;0.30;0.30;;;;;;;22.93;31.42;101104.47;5055527;28;20051;-68
2022/08/08 02:45:31;;;;;;;0.20;0.20;;;;;;;22.94;31.56;101108.81;5055365;28;20040;-68
2022/08/08 02:48:34;;;;;;;0.20;0.20;;;;;;;22.96;31.48;101112.97;5056875;28;20131;-68
2022/08/08 02:51:27;;;;;;;0.20;0.20;;;;;;;22.93;31.13;101109.91;5037615;28;20041;-68
2022/08/08 02:54:30;;;;;;;0.10;0.10;;;;;;;22.94;31.41;101115.13;5057406;28;20033;-68
2022/08/08 02:57:19;;;;;;;0.30;0.30;;;;;;;22.93;31.18;101118.91;5056580;28;20025;-68
2022/08/08 03:00:23;;;;;;;0.20;0.20;;;;;;;22.94;31.43;101126.03;5060153;28;20028;-67
2022/08/08 03:03:16;;;;;;;0.40;0.20;;;;;;;22.93;31.13;101118.91;5076318;28;20101;-67
2022/08/08 03:05:48;;;;;;;0.20;0.20;;;;;;;22.91;31.33;101118.34;5076190;28;20463;-67
2022/08/08 03:08:41;;;;;;;0.90;0.30;;;;;;;22.93;31.38;101129.81;5075228;28;20076;-67
2022/08/08 03:11:36;;;;;;;0.20;0.20;;;;;;;22.94;31.50;101127.91;5076004;28;20036;-67
2022/08/08 03:14:35;;;;;;;0.20;0.20;;;;;;;22.93;31.60;101138.00;5076198;28;20029;-67
2022/08/08 03:17:10;;;;;;;0.20;0.20;;;;;;;22.92;31.58;101138.25;5076298;28;20421;-67
2022/08/08 03:19:56;;;;;;;0.30;0.30;;;;;;;22.90;31.58;101140.41;5076076;28;20040;-67
2022/08/08 03:22:21;;;;;;;0.20;0.20;;;;;;;22.90;31.58;101143.94;5075213;28;20033;-67
2022/08/08 03:24:50;;;;;;;0.20;0.20;;;;;;;22.90;31.87;101143.94;5075923;28;20086;-67
2022/08/08 03:27:18;;;;;;;0.20;0.20;;;;;;;22.89;31.85;101145.03;5076153;28;20048;-67
2022/08/08 03:29:46;;;;;;;0.20;0.20;;;;;;;22.90;31.87;101154.03;5075374;28;20505;-67
2022/08/08 03:34:56;;;;;;;0.43;0.30;;;;;;;22.93;31.83;101151.63;5076042;28;20035;-67
2022/08/08 03:37:21;;;;;;;0.20;0.20;;;;;;;22.93;31.76;101150.81;5074777;28;20025;-67
2022/08/08 03:39:47;;;;;;;0.20;0.20;;;;;;;22.92;32.03;101150.00;5074554;28;20485;-67
2022/08/08 03:42:16;;;;;;;0.30;0.30;;;;;;;22.93;32.11;101154.34;5075159;28;20474;-67
2022/08/08 03:44:41;;;;;;;0.20;0.20;;;;;;;22.95;32.02;101144.00;5075485;28;20070;-67
2022/08/08 03:47:07;;;;;;;0.20;0.20;;;;;;;22.94;32.10;101153.28;5074143;28;20067;-67
2022/08/08 03:49:32;;;;;;;0.20;0.20;;;;;;;22.96;32.03;101144.84;5075444;28;20111;-67
2022/08/08 03:51:57;;;;;;;0.20;0.20;;;;;;;23.00;32.26;101154.16;5075828;28;20082;-67
2022/08/08 03:54:24;;;;;;;0.30;0.30;;;;;;;23.01;32.14;101148.47;5075835;28;20359;-67
2022/08/08 03:56:49;;;;;;;0.30;0.30;;;;;;;23.03;32.15;101153.66;5075219;28;20025;-68
2022/08/08 03:59:15;;;;;;;0.20;0.20;;;;;;;23.04;32.24;101145.25;5075214;28;20028;-68
2022/08/08 04:01:41;;;;;;;0.30;0.30;;;;;;;23.04;32.15;101153.41;5055691;28;20021;-68
2022/08/08 04:04:06;;;;;;;0.20;0.20;;;;;;;23.05;32.21;101154.22;5055522;28;20029;-68
2022/08/08 04:06:32;;;;;;;0.20;0.20;;;;;;;23.05;32.55;101160.53;5055307;28;20459;-68
2022/08/08 04:09:03;;;;;;;0.20;0.20;;;;;;;23.05;32.58;101152.34;5054953;28;20075;-68
2022/08/08 04:11:30;;;;;;;0.20;0.20;;;;;;;23.04;32.46;101153.41;5055577;28;20028;-68
2022/08/08 04:13:55;;;;;;;0.30;0.30;;;;;;;23.06;32.63;101154.00;5053551;28;20037;-68
2022/08/08 04:16:21;;;;;;;0.20;0.20;;;;;;;23.07;32.73;101152.09;5054594;28;20025;-68
2022/08/08 04:18:47;;;;;;;0.85;0.30;;;;;;;23.11;32.87;101157.88;5055104;28;20029;-68
2022/08/08 04:21:13;;;;;;;0.20;0.20;;;;;;;23.14;33.00;101157.38;5054755;28;20189;-68
2022/08/08 04:23:39;;;;;;;0.28;0.20;;;;;;;23.13;32.95;101155.72;5054735;28;20021;-68
2022/08/08 04:26:05;;;;;;;0.30;0.30;;;;;;;23.14;32.85;101154.66;5054574;28;20151;-68
2022/08/08 04:28:30;;;;;;;0.28;0.28;;;;;;;23.17;33.00;101151.41;5053321;28;20036;-68
2022/08/08 04:30:56;;;;;;;0.20;0.20;;;;;;;23.15;33.17;101159.84;5054643;28;20025;-68
2022/08/08 04:33:21;;;;;;;0.20;0.20;;;;;;;23.20;33.17;101156.38;5036368;28;20439;-68
2022/08/08 04:35:47;;;;;;;0.30;0.30;;;;;;;23.23;33.43;101161.28;5054599;28;20033;-68
2022/08/08 04:38:12;;;;;;;0.40;0.40;;;;;;;23.25;33.31;101164.63;5054580;28;20033;-67
2022/08/08 04:40:38;;;;;;;0.20;0.20;;;;;;;23.29;33.34;101159.47;5054780;28;20049;-67
2022/08/08 04:43:03;;;;;;;0.20;0.20;;;;;;;23.32;33.73;101154.34;5054453;28;20028;-68
2022/08/08 04:45:29;;;;;;;0.50;0.30;;;;;;;23.29;33.78;101154.84;5053577;28;20075;-68
2022/08/08 04:47:57;;;;;;;0.20;0.20;;;;;;;23.30;33.70;101164.69;5055349;28;20017;-67
2022/08/08 04:50:22;;;;;;;0.20;0.20;;;;;;;23.35;33.81;101167.47;5054032;28;20483;-68
2022/08/08 04:52:48;;;;;;;0.25;0.22;;;;;;;23.31;34.11;101166.31;5054382;28;20092;-68
2022/08/08 04:55:15;;;;;;;1.08;0.30;;;;;;;23.34;34.35;101179.44;5054224;28;20455;-68
2022/08/08 04:57:40;;;;;;;0.28;0.28;;;;;;;23.32;34.71;101167.97;5053906;28;20139;-68
2022/08/08 05:00:06;;;;;;;0.52;0.20;;;;;;;23.26;35.02;101168.97;5057031;28;20524;-68
2022/08/08 05:02:32;;;;;;;0.40;0.20;;;;;;;23.36;34.77;101182.75;5073973;28;20020;-68
2022/08/08 05:04:58;;;;;;;1.48;0.30;;;;;;;23.34;35.36;101184.91;5073775;28;20024;-69
2022/08/08 05:07:23;;;;;;;0.30;0.30;;;;;;;23.33;35.39;101198.78;5073818;28;20089;-68
2022/08/08 05:09:49;;;;;;;0.55;0.30;;;;;;;23.39;35.32;101198.59;5073701;28;20028;-69
2022/08/08 05:12:14;;;;;;;0.20;0.20;;;;;;;23.37;35.64;101195.31;5072227;28;20028;-68
2022/08/08 05:14:40;;;;;;;0.43;0.20;;;;;;;23.41;35.55;101196.44;5073889;28;20446;-68
2022/08/08 05:17:05;;;;;;;0.20;0.20;;;;;;;23.41;35.74;101201.91;5073522;28;20412;-68
2022/08/08 05:19:32;;;;;;;2.38;0.30;;;;;;;23.42;35.81;101195.38;5073688;28;20417;-68
2022/08/08 05:21:58;;;;;;;1.42;0.28;;;;;;;23.42;36.06;101200.84;5073452;28;20021;-69
2022/08/08 05:24:23;;;;;;;1.75;0.20;;;;;;;23.40;36.17;101200.28;5072051;28;20041;-69
2022/08/08 05:26:49;;;;;;;0.25;0.25;;;;;;;23.46;36.27;101200.31;5073707;28;20068;-69
2022/08/08 05:29:14;;;;;;;0.32;0.30;;;;;;;23.49;36.22;101207.97;5073207;28;20419;-68
2022/08/08 05:31:40;;;;;;;1.08;0.22;;;;;;;23.51;36.37;101203.09;5073315;28;20027;-69
2022/08/08 05:34:06;;;;;;;0.10;0.10;;;;;;;23.53;36.63;101192.78;5073040;28;20543;-69
2022/08/08 05:36:33;;;;;;;0.85;0.50;;;;;;;23.51;36.30;101205.81;5071807;28;20082;-68
2022/08/08 05:39:00;;;;;;;1.65;0.30;;;;;;;23.49;36.51;101197.91;5073325;28;20443;-69
2022/08/08 05:41:26;;;;;;;0.20;0.20;;;;;;;23.52;36.56;101202.03;5071907;28;20024;-68
2022/08/08 05:43:57;;;;;;;0.50;0.20;;;;;;;23.44;36.66;101206.84;5073711;28;20107;-69
2022/08/08 05:46:22;;;;;;;1.55;0.30;;;;;;;23.45;36.91;101202.22;5073235;28;20047;-69
2022/08/08 05:48:48;;;;;;;2.85;0.32;;;;;;;23.49;36.99;101213.44;5055144;28;20458;-69
2022/08/08 05:51:13;;;;;;;1.85;0.38;;;;;;;23.46;37.45;101209.34;5072212;28;20355;-68
2022/08/08 05:53:38;;;;;;;1.55;0.20;;;;;;;23.47;37.32;101210.97;5072224;28;20028;-68
2022/08/08 05:56:04;;;;;;;1.88;0.30;;;;;;;23.49;37.68;101214.28;5073162;28;20025;-68
2022/08/08 05:58:30;;;;;;;0.52;0.30;;;;;;;23.58;37.63;101217.38;5071651;28;20028;-68
2022/08/08 06:01:00;;;;;;;0.22;0.22;;;;;;;23.54;37.16;101208.88;5062606;28;20033;-68
2022/08/08 06:03:26;;;;;;;1.55;0.20;;;;;;;23.59;37.47;101213.56;5051587;28;20024;-68
2022/08/08 06:05:57;;;;;;;3.22;0.30;;;;;;;23.58;37.38;101218.19;5052528;28;20056;-68
2022/08/08 06:08:30;;;;;;;0.98;0.20;;;;;;;23.49;37.05;101219.75;5053164;28;20133;-68
2022/08/08 06:10:57;;;;;;;0.30;0.30;;;;;;;23.52;37.24;101216.47;5050925;28;20021;-69
2022/08/08 06:13:23;;;;;;;0.20;0.17;;;;;;;23.54;37.25;101216.22;5053410;28;20120;-69
2022/08/08 06:15:49;;;;;;;3.20;0.20;;;;;;;23.51;37.26;101216.72;5053389;28;20108;-68
2022/08/08 06:18:15;;;;;;;0.10;0.10;;;;;;;23.58;36.95;101217.38;5055584;28;20468;-68
2022/08/08 06:20:41;;;;;;;1.92;0.25;;;;;;;23.61;36.82;101222.31;5052252;28;20106;-69
2022/08/08 06:23:07;;;;;;;0.50;0.28;;;;;;;23.62;36.79;101223.97;5053431;28;20027;-69
2022/08/08 06:25:35;;;;;;;1.65;0.40;;;;;;;23.61;36.89;101230.50;5056644;28;20384;-68
2022/08/08 06:28:03;;;;;;;1.48;0.35;;;;;;;23.58;36.59;101231.03;5068625;28;20017;-68
2022/08/08 06:30:28;;;;;;;1.45;0.30;;;;;;;23.58;36.68;101233.75;5060414;28;20029;-69
2022/08/08 06:32:58;;;;;;;0.30;0.30;;;;;;;23.67;36.31;101232.22;5060825;28;20140;-69
2022/08/08 06:35:24;;;;;;;5.78;0.50;;;;;;;23.65;36.13;101228.94;5063374;28;20125;-69
2022/08/08 06:37:51;;;;;;;1.80;0.30;;;;;;;23.67;36.05;101215.84;5058195;28;20101;-69
2022/08/08 06:40:17;;;;;;;2.33;0.30;;;;;;;23.69;35.22;101229.25;5059857;28;20033;-69
2022/08/08 06:42:52;;;;;;;3.90;0.40;;;;;;;23.72;35.13;101224.09;5056432;28;20513;-69
2022/08/08 06:45:18;;;;;;;2.58;0.38;;;;;;;23.72;35.13;101229.56;5051720;28;20112;-68
2022/08/08 06:47:43;;;;;;;4.40;0.32;;;;;;;23.69;34.97;101232.78;5034642;28;20043;-69
2022/08/08 06:50:09;;;;;;;0.20;0.20;;;;;;;23.74;34.77;101230.13;5052747;28;20062;-69
2022/08/08 06:52:35;;;;;;;0.77;0.28;;;;;;;23.81;34.20;101228.03;5050975;28;20025;-69
2022/08/08 06:55:00;;;;;;;2.35;0.32;;;;;;;23.72;34.19;101229.56;5051856;28;20029;-69
2022/08/08 06:57:26;;;;;;;1.52;0.20;;;;;;;23.79;34.13;101232.91;5052321;28;20017;-68
2022/08/08 06:59:52;;;;;;;0.52;0.20;;;;;;;23.75;34.32;101229.03;5052239;28;20509;-69
2022/08/08 07:02:23;;;;;;;1.08;0.30;;;;;;;23.79;33.99;101232.91;5073487;28;20111;-68
2022/08/08 07:04:55;;;;;;;0.20;0.20;;;;;;;23.79;34.34;101229.34;5072505;28;20024;-67
2022/08/08 07:07:44;;;;;;;0.20;0.20;;;;;;;23.74;34.25;101227.38;5073204;28;20036;-69
2022/08/08 07:10:10;;;;;;;2.45;0.30;;;;;;;23.76;34.40;101224.41;5072263;28;20491;-68
2022/08/08 07:12:50;;;;;;;0.95;0.30;;;;;;;23.82;34.20;101228.88;5070877;28;20029;-68
2022/08/08 07:15:16;;;;;;;1.92;0.17;;;;;;;23.83;34.22;101232.44;5072469;28;20016;-69
2022/08/08 07:17:45;;;;;;;2.17;0.20;;;;;;;23.72;34.37;101224.09;5070923;28;20025;-69
2022/08/08 07:20:16;;;;;;;1.52;0.25;;;;;;;23.77;34.21;101229.63;5072792;28;20044;-69
2022/08/08 07:22:57;;;;;;;0.13;0.10;;;;;;;23.82;34.23;101234.34;5075855;28;20020;-71
2022/08/08 07:25:24;;;;;;;3.28;0.20;;;;;;;23.85;34.02;101238.44;5075452;28;20033;-70
2022/08/08 07:27:50;;;;;;;159.38;61.88;;;;;;;23.85;33.81;101244.72;5058692;28;20082;-70
2022/08/08 07:30:16;;;;;;;225.68;101.35;;;;;;;23.85;33.79;101243.91;5074607;28;20031;-69
2022/08/08 07:32:41;;;;;;;134.18;62.70;;;;;;;23.94;33.63;101253.28;5075540;28;20457;-70
2022/08/08 07:35:07;;;;;;;108.53;50.22;;;;;;;23.89;33.54;101245.06;5074433;28;20024;-70
2022/08/08 07:37:34;;;;;;;219.30;85.07;;;;;;;23.85;33.73;101250.19;5058265;28;20037;-70
2022/08/08 07:40:00;;;;;;;389.77;146.15;;;;;;;23.87;33.51;101247.19;5075665;28;20036;-70
2022/08/08 07:42:25;;;;;;;243.95;102.53;;;;;;;23.93;33.49;101260.66;5075780;28;20029;-67
2022/08/08 07:44:51;;;;;;;197.10;88.05;;;;;;;23.92;33.60;101261.75;5075473;28;20491;-68
2022/08/08 07:47:16;;;;;;;91.95;42.58;;;;;;;23.96;33.25;101262.06;5075172;28;20424;-69
2022/08/08 07:49:42;;;;;;;70.25;32.35;;;;;;;23.94;33.12;101262.31;5075260;28;20093;-69
2022/08/08 07:52:11;;;;;;;34.03;15.40;;;;;;;23.94;33.34;101269.66;5076102;28;20099;-68
2022/08/08 07:55:06;;;;;;;30.20;12.95;;;;;;;23.97;33.24;101271.88;5075705;28;20055;-69
2022/08/08 07:57:37;;;;;;;24.65;11.98;;;;;;;24.01;33.22;101278.50;5076239;28;20029;-68
2022/08/08 08:00:10;;;;;;;14.90;6.63;;;;;;;24.03;33.02;101273.59;5074866;28;20025;-69
2022/08/08 08:02:43;;;;;;;15.48;7.25;;;;;;;24.06;32.51;101284.03;5053936;28;20459;-69
2022/08/08 08:05:25;;;;;;;14.65;7.07;;;;;;;24.09;32.53;101283.47;5055190;28;20116;-69
2022/08/08 08:07:55;;;;;;;12.98;5.30;;;;;;;24.07;32.51;101293.84;5053894;28;20373;-69
2022/08/08 08:10:20;;;;;;;8.02;4.05;;;;;;;24.07;32.44;101290.31;5053494;28;20090;-69
2022/08/08 08:13:21;;;;;;;8.48;4.38;;;;;;;24.18;31.69;101302.97;5059622;28;20032;-67
2022/08/08 08:16:01;;;;;;;6.13;2.50;;;;;;;24.12;31.72;101304.00;5019916;28;20042;-70
2022/08/08 08:18:51;;;;;;;5.88;2.40;;;;;;;24.10;31.75;101296.06;5013846;28;20037;-70
2022/08/08 08:21:17;;;;;;;6.88;3.38;;;;;;;24.14;31.62;101297.19;4999545;28;20137;-70
2022/08/08 08:23:42;;;;;;;5.55;2.25;;;;;;;24.12;31.86;101302.09;5013118;28;20524;-69
2022/08/08 08:26:07;;;;;;;3.75;1.90;;;;;;;24.10;31.73;101306.19;5015576;28;20066;-69
2022/08/08 08:28:33;;;;;;;2.83;1.58;;;;;;;24.11;31.54;101305.06;5012735;28;20053;-69
2022/08/08 08:31:03;;;;;;;2.70;1.40;;;;;;;24.14;31.84;101308.13;5012348;28;20130;-69
2022/08/08 08:33:29;;;;;;;1.95;1.40;;;;;;;24.15;31.19;101309.78;5011851;28;20045;-69
2022/08/08 08:35:54;;;;;;;2.50;1.17;;;;;;;24.12;31.85;101304.81;4999552;28;20076;-68
2022/08/08 08:38:20;;;;;;;1.67;0.93;;;;;;;24.12;31.88;101310.28;5014583;28;20416;-68
2022/08/08 08:40:45;;;;;;;1.77;0.90;;;;;;;24.18;31.72;101308.44;5012404;28;20053;-68
2022/08/08 08:43:11;;;;;;;2.10;0.73;;;;;;;24.16;31.69;101313.31;4996049;28;20149;-69
2022/08/08 08:45:36;;;;;;;1.55;0.90;;;;;;;24.19;31.75;101304.63;5012227;28;20099;-69
2022/08/08 08:48:02;;;;;;;1.17;0.65;;;;;;;24.17;31.87;101310.34;5012594;28;20152;-69
2022/08/08 08:50:27;;;;;;;1.48;0.80;;;;;;;24.22;31.92;101316.97;5012312;28;20080;-69
2022/08/08 08:52:54;;;;;;;1.17;0.68;;;;;;;24.22;31.81;101316.97;5038029;28;20097;-68
2022/08/08 08:55:19;;;;;;;1.05;0.52;;;;;;;24.17;31.92;101310.34;5036724;28;20036;-68
2022/08/08 08:57:44;;;;;;;0.60;0.50;;;;;;;24.15;31.30;101309.78;5036013;28;20021;-69
2022/08/08 09:00:10;;;;;;;0.80;0.45;;;;;;;24.15;31.76;101308.97;5052970;28;20025;-68
2022/08/08 09:02:37;;;;;;;1.48;0.50;;;;;;;24.12;31.68;101307.56;5074080;28;20454;-68
2022/08/08 09:05:06;;;;;;;0.63;0.30;;;;;;;24.10;31.84;101307.00;5072213;28;20454;-69
2022/08/08 09:07:33;;;;;;;0.45;0.30;;;;;;;24.11;31.93;101313.28;5072283;28;20020;-69
2022/08/08 09:09:58;;;;;;;3.13;0.40;;;;;;;24.05;32.25;101323.31;5074534;28;20114;-69
2022/08/08 09:12:24;;;;;;;2.85;0.50;;;;;;;24.10;31.85;101315.19;5072825;28;20450;-69
2022/08/08 09:14:52;;;;;;;0.20;0.20;;;;;;;24.13;31.89;101317.41;5074165;28;20034;-69
2022/08/08 09:17:17;;;;;;;0.40;0.20;;;;;;;24.13;32.04;101311.94;5072627;28;20024;-68
2022/08/08 09:19:44;;;;;;;0.50;0.30;;;;;;;24.19;32.05;101310.91;5073815;28;20025;-68
2022/08/08 09:22:09;;;;;;;0.20;0.20;;;;;;;24.19;31.85;101312.81;5074566;28;20020;-68
2022/08/08 09:24:35;;;;;;;0.30;0.30;;;;;;;24.21;31.94;101315.31;5073101;28;20459;-69
2022/08/08 09:27:07;;;;;;;0.20;0.20;;;;;;;24.21;31.61;101318.03;5055682;28;20467;-68
2022/08/08 09:30:01;;;;;;;0.20;0.20;;;;;;;24.19;31.67;101316.38;5074643;28;20025;-70
2022/08/08 09:32:40;;;;;;;0.30;0.30;;;;;;;24.13;31.90;101317.41;5072362;28;20036;-70
2022/08/08 09:35:12;;;;;;;2.63;0.32;;;;;;;24.17;31.95;101309.53;5074693;28;20139;-68
2022/08/08 09:38:01;;;;;;;0.73;0.30;;;;;;;24.17;32.15;101310.34;5074236;28;20446;-69
2022/08/08 09:40:28;;;;;;;1.23;0.50;;;;;;;24.21;32.04;101307.09;5074041;28;20033;-68
2022/08/08 09:43:05;;;;;;;4.07;0.43;;;;;;;24.21;32.01;101307.94;5073648;28;20041;-69
2022/08/08 09:45:32;;;;;;;5.35;0.32;;;;;;;24.22;31.61;101303.31;5073333;28;20052;-69
2022/08/08 09:48:02;;;;;;;1.67;0.30;;;;;;;24.18;31.76;101308.44;5072973;28;20052;-68
2022/08/08 09:50:29;;;;;;;0.88;0.20;;;;;;;24.23;31.65;101307.66;5072918;28;20126;-69
2022/08/08 09:52:55;;;;;;;3.33;0.20;;;;;;;24.20;31.89;101303.56;5073526;28;20032;-69
2022/08/08 09:55:21;;;;;;;1.20;0.20;;;;;;;24.14;31.84;101302.66;5072911;28;20536;-69
2022/08/08 09:57:49;;;;;;;0.63;0.20;;;;;;;24.11;31.72;101297.72;5071635;28;20028;-68
2022/08/08 10:00:16;;;;;;;0.45;0.20;;;;;;;24.13;31.98;101303.75;5072651;28;20146;-69
2022/08/08 10:02:42;;;;;;;0.90;0.30;;;;;;;24.13;31.90;101305.66;5053518;28;20036;-69
2022/08/08 10:05:19;;;;;;;0.17;0.17;;;;;;;24.12;31.81;101298.53;5052736;28;20024;-70
2022/08/08 10:07:44;;;;;;;0.30;0.20;;;;;;;24.21;31.47;101297.00;5051869;28;20105;-70
2022/08/08 10:10:10;;;;;;;1.75;0.30;;;;;;;24.18;31.80;101295.63;5053562;28;20429;-69
2022/08/08 10:12:37;;;;;;;0.63;0.30;;;;;;;24.18;31.66;101298.34;5052718;28;20036;-68
2022/08/08 10:15:04;;;;;;;0.20;0.20;;;;;;;24.18;31.55;101298.34;5052838;28;20032;-69
2022/08/08 10:17:31;;;;;;;0.40;0.20;;;;;;;24.13;31.00;101290.09;5052954;28;20025;-68
2022/08/08 10:19:58;;;;;;;1.08;0.30;;;;;;;24.26;31.42;101293.50;5052621;28;20545;-69
2022/08/08 10:22:23;;;;;;;0.47;0.20;;;;;;;24.17;31.28;101296.69;5053019;28;20044;-69
2022/08/08 10:24:49;;;;;;;0.40;0.40;;;;;;;24.25;31.39;101297.31;5034870;28;20017;-69
2022/08/08 10:27:14;;;;;;;1.35;0.20;;;;;;;24.20;31.15;101295.38;5034915;28;20039;-69
2022/08/08 10:29:43;;;;;;;1.10;0.40;;;;;;;24.26;30.83;101290.78;5052129;28;20047;-69
2022/08/08 10:34:56;;;;;;;0.47;0.47;;;;;;;24.27;30.76;101292.44;5053026;28;20048;-69
2022/08/08 10:37:27;;;;;;;0.75;0.32;;;;;;;24.25;31.25;101284.50;5052696;28;20032;-69
2022/08/08 10:39:54;;;;;;;0.50;0.40;;;;;;;24.21;31.32;101286.06;5052403;28;20490;-68
2022/08/08 10:42:19;;;;;;;0.80;0.50;;;;;;;24.20;31.21;101273.53;5053587;28;20033;-69
2022/08/08 10:44:45;;;;;;;0.47;0.20;;;;;;;24.27;31.00;101279.59;5035844;28;20429;-69
2022/08/08 10:47:11;;;;;;;0.57;0.25;;;;;;;24.34;30.86;101280.22;5052678;28;20445;-68
2022/08/08 10:49:36;;;;;;;3.30;0.40;;;;;;;24.28;31.04;101277.69;5052103;28;20032;-69
2022/08/08 10:52:02;;;;;;;0.30;0.30;;;;;;;24.33;30.91;101277.72;5052629;28;20078;-69
2022/08/08 10:54:28;;;;;;;0.50;0.22;;;;;;;24.36;31.01;101280.78;5052378;28;20139;-69
2022/08/08 10:57:00;;;;;;;0.38;0.20;;;;;;;24.36;30.72;101271.75;5054181;28;20035;-69
2022/08/08 10:59:26;;;;;;;3.30;0.77;;;;;;;24.31;30.76;101266.25;5055691;28;20020;-70
2022/08/08 11:01:51;;;;;;;3.30;0.90;;;;;;;24.28;30.90;101274.94;5067690;28;20027;-68
2022/08/08 11:04:17;;;;;;;1.67;0.40;;;;;;;24.34;30.80;101274.75;5074780;28;20466;-68
2022/08/08 11:06:42;;;;;;;1.00;0.60;;;;;;;24.30;30.70;101270.03;5075510;28;20016;-70
2022/08/08 11:09:09;;;;;;;0.50;0.40;;;;;;;24.39;30.37;101271.25;5075827;28;20032;-70
2022/08/08 11:11:38;;;;;;;0.57;0.20;;;;;;;24.38;30.10;101275.88;5074792;28;20547;-70
2022/08/08 11:14:04;;;;;;;1.52;0.35;;;;;;;24.43;29.82;101268.81;5075878;28;20025;-70
2022/08/08 11:16:31;;;;;;;0.52;0.38;;;;;;;24.44;30.16;101273.19;5075874;28;20024;-69
2022/08/08 11:18:56;;;;;;;0.40;0.30;;;;;;;24.37;30.47;101257.03;5075125;28;20047;-70
2022/08/08 11:21:22;;;;;;;0.40;0.20;;;;;;;24.38;30.33;101264.13;5076390;28;20455;-70
2022/08/08 11:23:48;;;;;;;1.00;0.30;;;;;;;24.35;30.10;101264.63;5074386;28;20463;-69
2022/08/08 11:26:18;;;;;;;0.57;0.30;;;;;;;24.41;29.91;101257.31;5058036;28;20028;-70
2022/08/08 11:28:44;;;;;;;0.50;0.30;;;;;;;24.38;30.16;101253.19;5076112;28;20028;-70
2022/08/08 11:31:10;;;;;;;0.52;0.20;;;;;;;24.37;29.91;101257.03;5075999;28;20024;-69
2022/08/08 11:33:36;;;;;;;0.32;0.30;;;;;;;24.40;29.87;101256.47;5074102;28;20053;-69
2022/08/08 11:36:01;;;;;;;2.30;0.32;;;;;;;24.44;29.81;101268.56;5075523;28;20107;-70
2022/08/08 11:38:27;;;;;;;0.80;0.30;;;;;;;24.46;29.81;101262.84;5075411;28;20043;-69
2022/08/08 11:40:53;;;;;;;0.25;0.20;;;;;;;24.50;29.53;101267.50;5074334;28;20461;-69
2022/08/08 11:43:19;;;;;;;1.23;0.40;;;;;;;24.48;29.38;101268.88;5075380;28;20158;-68
2022/08/08 11:45:45;;;;;;;0.88;0.43;;;;;;;24.52;29.30;101276.25;5075022;28;20073;-68
2022/08/08 11:48:14;;;;;;;1.00;0.50;;;;;;;24.50;29.98;101272.97;5075193;28;20036;-68
2022/08/08 11:50:39;;;;;;;0.40;0.30;;;;;;;24.51;29.71;101269.16;5074920;28;20032;-68
2022/08/08 11:53:06;;;;;;;0.47;0.40;;;;;;;24.51;29.83;101262.88;5074945;28;20029;-68
2022/08/08 11:55:34;;;;;;;1.77;0.32;;;;;;;24.54;29.57;101267.84;5056968;28;20025;-68